Latest METARs, TAFs and NOTAMs for SKCL


---------------------------------------------------------------------------
	(OBSERVATIONS)
SKCL 260800Z VRB02KT 9999 FEW040 SCT100 20/20 A3000=
SKCL 260700Z VRB02KT 9999 FEW040 SCT090 20/19 A3002=
SKCL 260600Z 33003KT 9999 FEW040 SCT090 20/19 A3004=
---------------------------------------------------------------------------
	(TERMINAL AREA FORECAST)
SKCL 260500Z 2606/2706 VRB02KT 9999 SCT020 BKN120
    TEMPO 2610/2614 7000 VCFG SCT012
    BECMG 2618/2619 34010KT
    TEMPO 2619/2622 7000 DZRA SCT017CB
    TX30/2619Z TN19/2611Z=
---------------------------------------------------------------------------
	(NOTAMS)


SKCL A0144/17 PSN PRKG ACFT INSTL D-15 COORD 033211,18N0762310,69W
    D-16 COORD 033209,73N0762311,00W D-17 COORD 033208,25N0762311,13W
    D-18 COORD 033206,40N0762311,72W REF AIP AD-2-SKCL-APDC.
    13 JAN 19:15 2017 UNTIL PERM. CREATED: 13 JAN 19:18 2017

SKCL A0336/17 ACFT STAND INSTALLED: D19 COORD 033205,35N0762311,62W
    D20 COORD 033204,65N0762312,53W G1 COORD 033200,70N0762314,28W
    G2 COORD 033200,50N0762313,15W G3 COORD 033200,30N0762312,02W
    G4 COORD 033200,10N0762310,89W G5 COORD 033159,29N0762309,33W
    REF. AIP SKCL APDC. 31 JAN 21:30 2017 UNTIL PERM. CREATED:
    31 JAN 21:44 2017

SKCL A0463/17 RWY 02/20 LTD RESTRICTED FLT TRG DUE FAILURES FREQ
    AND FLOW OF TFC 15 FEB 14:15 UNTIL 22 FEB 23:59 ESTIMATED
    H24

SKCL A0632/17 TURBINE START POINT NR 08 INSTL NEXT COORD: 033207,81N0762307,42W
    TURBINE START POINT NR 09 INSTL NEXT COORD: 033203,04N0762308,24W
    03 MAR 15:00 UNTIL PERM

SKCL A0869/17 APN INTL LTD, SE RESTRINGE OPS DE ACFT AVIACION
    GEN, ACFT AVIACION GEN SERAN REUBICADAS EN APN DE DESCONGESTION,CARGA
    Y AVIACION GEN. TRIPULACION DEBE INFORMAR AL CECOA CUANDO
    PRETENDA PERNOCTAR Y FECHA DE SALIDA TEL. (57) 3155779760
    - (57-2) 2800111. 31 MAR 21:55 2017 UNTIL 30 JUN 23:59 2017
    ESTIMATED. CREATED: 31 MAR 21:59 2017

SKCL A1029/17 MOV AREA WO VERTICAL SIGNAL, EXER CTN. H24, 18
    APR 12:11 2017 UNTIL 18 JUL 23:59 2017 ESTIMATED. CREATED:
    18 APR 12:12 2017

SKCL A1134/17 ACFT STAND G5 AUTH TEST ENGINES, ACFT TIL CAT B
    REF. AIP AD APDC. 25 APR 14:47 2017 UNTIL PERM. CREATED:
    25 APR 14:49 2017

SKCL A1223/17 PSN PRKG ACFT NOMENCLATURE CHANGE: PSN PRKG ACFT
    02 CHANGE TO PSN PRKG ACFT D15 PSN PRKG ACFT 03 CHANGE TO
    PSN PRKG ACFT C14 PSN PRKG ACFT 04 CHANGE TO PSN PRKG ACFT
    C13 PSN PRKG ACFT 05 CHANGE TO PSN PRKG ACFT C12 PSN PRKG
    ACFT 06 CHANGE TO PSN PRKG ACFT B11 PSN PRKG ACFT 07 CHANGE
    TO PSN PRKG ACFT B10 PSN PRKG ACFT 08 CHANGE TO PSN PRKG
    ACFT B9 PSN PRKG ACFT 09 CHANGE TO PSN PRKG ACFT B8 PSN PRKG
    ACFT 10 CHANGE TO PSN PRKG ACFT B7 PSN PRKG ACFT 11 CHANGE
    TO PSN PRKG ACFT B6 PSN PRKG ACFT 12 CHANGE TO PSN PRKG ACFT
    B5 PSN PRKG ACFT 13 CHANGE TO PSN PRKG ACFT A4 PSN PRKG ACFT
    14 CHANGE TO PSN PRKG ACFT A3 PSN PRKG ACFT 15 CHANGE TO
    PSN PRKG ACFT A2 PSN PRKG ACFT 16 CHANGE TO PSN PRKG ACFT
    A1 REF. AIP SKCL 2.20, APDC. 02 MAY 13:46 2017 UNTIL PERM.
    CREATED: 02 MAY 13:50 2017

SKCL A1237/17 HELIPORT H1, H2, H3 CLSD TO ALL NGT OPS REF. AIP
    AD 2.16 - SKCL. 03 MAY 19:05 2017 UNTIL PERM. CREATED: 03
    MAY 19:09 2017

SKCL A1516/17 APN, APN CARGO AND DESCONGESTION AREA WIP, EXER
    CTN. H24, 30 MAY 13:10 2017 UNTIL 30 JUN 23:59 2017. CREATED:
    30 MAY 13:12 2017

SKCL A1522/17 STRIP TWY A,B,C,D,E,F,C1,C2,G WIP, EXER CTN. H24,
    30 MAY 18:20 2017 UNTIL 30 JUN 23:59 2017 ESTIMATED. CREATED:
    30 MAY 18:20 2017

SKCL A1523/17 STRIP RWY 02/20 WIP, EXER CTN. 30 MAY 18:45 2017
    UNTIL 30 JUN 23:59 2017 ESTIMATED. CREATED: 30 MAY 18:53
    2017

SKCL A1565/17 SEQUENCED FLG LGT RWY 02 U/S. 02 JUN 21:39 2017
    UNTIL 30 JUN 23:59 2017. CREATED: 02 JUN 21:42 2017

SKCL A1669/17 TRIGGER NOTAM - PERM AIP SUP A16/17 WEF 13JUN2017
    RUNWAY TRAINING CONSTRAINTS REF. AIP SKCL AD 2.20. 13 JUN
    03:15 2017 UNTIL PERM. CREATED: 13 JUN 03:17 2017

SKCL A4756/16 STAR BUENAVENTURA 2D (BUN2D) HAS CHANGED TO BUENAVENTURA
    3D (BUN3D. 19 DEC 14:48 2016 UNTIL PERM. CREATED: 19 DEC
    14:49 2016

---------------------------------------------------------------------------